createdAt,value
2022-12-12T00:01:55.670Z,100438.44
2022-12-12T00:05:57.077Z,100439.44
2022-12-12T00:09:58.556Z,100444.34
2022-12-12T00:14:00.127Z,100436.59
2022-12-12T00:18:01.560Z,100432.47
2022-12-12T00:22:02.985Z,100422.97
2022-12-12T00:26:08.874Z,100400.78
2022-12-12T00:30:10.847Z,100396.91
2022-12-12T00:34:12.264Z,100415.28
2022-12-12T00:38:13.725Z,100421.25
2022-12-12T00:42:15.429Z,100438.59
2022-12-12T00:46:21.062Z,100438.53
2022-12-12T00:50:22.650Z,100431.69
2022-12-12T00:54:24.129Z,100429.59
2022-12-12T00:58:26.273Z,100423.56
2022-12-12T01:02:28.422Z,100427.34
2022-12-12T01:06:30.392Z,100427.38
2022-12-12T01:10:31.996Z,100429.59
2022-12-12T01:14:33.421Z,100431.50
2022-12-12T01:18:35.619Z,100435.22
2022-12-12T01:22:37.368Z,100440.03
2022-12-12T01:26:38.840Z,100439.44
2022-12-12T01:30:40.350Z,100447.31
2022-12-12T01:34:41.788Z,100442.44
2022-12-12T01:38:47.960Z,100441.31
2022-12-12T01:42:50.501Z,100433.88
2022-12-12T01:46:52.057Z,100432.38
2022-12-12T01:50:54.881Z,100439.41
2022-12-12T01:55:02.525Z,100440.97
2022-12-12T01:59:07.330Z,100445.81
2022-12-12T02:03:09.232Z,100445.50
2022-12-12T02:07:10.690Z,100442.94
2022-12-12T02:11:13.046Z,100442.59
2022-12-12T02:15:14.715Z,100437.41
2022-12-12T02:19:55.831Z,100423.16
2022-12-12T02:24:30.065Z,100416.63
2022-12-12T02:28:53.140Z,100412.47
2022-12-12T02:33:04.434Z,100425.41
2022-12-12T02:37:29.188Z,100433.75
2022-12-12T02:41:43.289Z,100432.44
2022-12-12T02:45:57.933Z,100439.63
2022-12-12T02:50:10.212Z,100439.09
2022-12-12T02:54:17.287Z,100443.16
2022-12-12T02:58:19.857Z,100448.91
2022-12-12T03:02:30.241Z,100454.22
2022-12-12T03:07:02.566Z,100448.31
2022-12-12T03:11:10.851Z,100451.28
2022-12-12T03:15:38.255Z,100445.28
2022-12-12T03:19:56.384Z,100458.34
2022-12-12T03:24:08.316Z,100462.88
2022-12-12T03:28:29.995Z,100460.16
2022-12-12T03:32:58.518Z,100462.25
2022-12-12T03:37:22.176Z,100462.25
2022-12-12T03:41:30.953Z,100462.41
2022-12-12T03:45:51.881Z,100455.50
2022-12-12T03:50:02.168Z,100462.41
2022-12-12T03:54:11.231Z,100459.81
2022-12-12T03:58:37.511Z,100465.59
2022-12-12T04:02:44.727Z,100470.78
2022-12-12T04:06:54.148Z,100461.63
2022-12-12T04:11:42.410Z,100463.78
2022-12-12T04:15:56.757Z,100475.75
2022-12-12T04:20:30.677Z,100476.38
2022-12-12T04:24:47.132Z,100463.78
2022-12-12T04:29:15.397Z,100460.28
2022-12-12T04:33:22.880Z,100457.81
2022-12-12T04:37:29.266Z,100454.97
2022-12-12T04:41:35.036Z,100458.19
2022-12-12T04:45:44.088Z,100459.66
2022-12-12T04:49:49.838Z,100461.50
2022-12-12T04:53:58.200Z,100461.78
2022-12-12T04:58:00.112Z,100467.13
2022-12-12T05:02:14.694Z,100463.53
2022-12-12T05:06:20.119Z,100462.16
2022-12-12T05:10:21.957Z,100461.53
2022-12-12T05:14:23.414Z,100461.44
2022-12-12T05:18:24.872Z,100466.47
2022-12-12T05:22:26.368Z,100473.00
2022-12-12T05:26:31.323Z,100481.38
2022-12-12T05:30:33.254Z,100480.38
2022-12-12T05:34:34.753Z,100480.44
2022-12-12T05:38:36.407Z,100478.41
2022-12-12T05:42:37.986Z,100474.75
2022-12-12T05:46:40.617Z,100468.06
2022-12-12T05:50:42.072Z,100476.59
2022-12-12T05:54:43.482Z,100475.44
2022-12-12T05:58:44.885Z,100469.03
2022-12-12T06:02:46.317Z,100472.84
2022-12-12T06:06:47.972Z,100467.34
2022-12-12T06:10:49.434Z,100473.44
2022-12-12T06:14:50.872Z,100471.63
2022-12-12T06:18:53.995Z,100477.66
2022-12-12T06:22:55.374Z,100475.56
2022-12-12T06:26:56.816Z,100478.94
2022-12-12T06:30:58.318Z,100478.94
2022-12-12T06:34:59.744Z,100478.59
2022-12-12T06:39:01.826Z,100500.03
2022-12-12T06:43:03.276Z,100502.28
2022-12-12T06:47:04.711Z,100495.97
2022-12-12T06:51:08.416Z,100497.00
2022-12-12T06:55:10.054Z,100500.56
2022-12-12T06:59:12.576Z,100509.09
2022-12-12T07:03:14.063Z,100500.13
2022-12-12T07:07:15.518Z,100504.88
2022-12-12T07:11:20.596Z,100512.66
2022-12-12T07:15:22.088Z,100514.16
2022-12-12T07:19:23.619Z,100512.59
2022-12-12T07:23:25.084Z,100512.31
2022-12-12T07:27:26.517Z,100514.84
2022-12-12T07:31:28.926Z,100519.47
2022-12-12T07:35:30.466Z,100524.44
2022-12-12T07:39:32.604Z,100521.69
2022-12-12T07:43:43.336Z,100521.16
2022-12-12T07:47:46.485Z,100532.28
2022-12-12T07:51:49.460Z,100532.72
2022-12-12T07:55:51.024Z,100539.63
2022-12-12T07:59:52.842Z,100543.06
2022-12-12T08:03:54.755Z,100553.81
2022-12-12T08:07:56.260Z,100557.53
2022-12-12T08:11:58.983Z,100551.63
2022-12-12T08:16:00.647Z,100555.50
2022-12-12T08:20:02.252Z,100559.88
2022-12-12T08:24:03.857Z,100569.63
2022-12-12T08:28:05.374Z,100569.09
2022-12-12T08:32:07.235Z,100575.56
2022-12-12T08:36:18.114Z,100567.91
2022-12-12T08:40:19.574Z,100576.28
2022-12-12T08:44:21.784Z,100579.50
2022-12-12T08:48:23.213Z,100581.13
2022-12-12T08:52:24.659Z,100586.09
2022-12-12T08:56:26.445Z,100594.47
2022-12-12T09:00:27.903Z,100595.19
2022-12-12T09:04:29.321Z,100608.63
2022-12-12T09:08:30.876Z,100603.72
2022-12-12T09:12:35.705Z,100602.78
2022-12-12T09:16:41.531Z,100603.56
2022-12-12T09:20:43.120Z,100615.06
2022-12-12T09:24:44.606Z,100620.50
2022-12-12T09:28:46.239Z,100621.34
2022-12-12T09:32:47.736Z,100622.63
2022-12-12T09:36:49.152Z,100625.22
2022-12-12T09:40:57.445Z,100616.63
2022-12-12T09:45:03.985Z,100626.28
2022-12-12T09:49:15.867Z,100620.91
2022-12-12T09:53:21.648Z,100622.97
2022-12-12T09:57:39.633Z,100611.09
2022-12-12T10:01:56.813Z,100610.97
2022-12-12T10:10:39.794Z,100610.22
2022-12-12T10:14:47.839Z,100617.63
2022-12-12T10:18:53.009Z,100611.75
2022-12-12T10:23:31.925Z,100611.97
2022-12-12T10:27:33.475Z,100620.91
2022-12-12T10:31:55.951Z,100622.69
2022-12-12T10:36:18.550Z,100631.03
2022-12-12T10:40:19.949Z,100632.09
2022-12-12T10:44:51.526Z,100615.63
2022-12-12T10:48:54.069Z,100623.59
2022-12-12T10:52:55.525Z,100623.22
2022-12-12T10:57:20.359Z,100616.03
2022-12-12T11:01:52.456Z,100614.00
2022-12-12T11:05:48.041Z,100608.06
2022-12-12T11:09:49.460Z,100606.72
2022-12-12T11:13:55.576Z,100610.91
2022-12-12T11:18:02.734Z,100616.78
2022-12-12T11:22:07.600Z,100619.84
2022-12-12T11:26:15.610Z,100614.56
2022-12-12T11:30:32.530Z,100612.06
2022-12-12T11:34:38.410Z,100604.22
2022-12-12T11:38:45.903Z,100608.88
2022-12-12T11:42:47.417Z,100604.44
2022-12-12T11:46:48.880Z,100613.13
2022-12-12T11:50:50.286Z,100613.69
2022-12-12T11:54:53.342Z,100624.66
2022-12-12T11:59:02.339Z,100615.63
2022-12-12T12:03:15.028Z,100618.69
2022-12-12T12:07:54.322Z,100631.22
2022-12-12T12:12:16.040Z,100635.22
2022-12-12T12:17:07.855Z,100642.22
2022-12-12T12:21:30.911Z,100631.59
2022-12-12T12:26:02.866Z,100640.78
2022-12-12T12:30:17.267Z,100642.13
2022-12-12T12:34:35.848Z,100633.47
2022-12-12T12:38:58.688Z,100637.06
2022-12-12T12:43:24.730Z,100634.22
2022-12-12T12:47:47.398Z,100638.91
2022-12-12T12:52:12.788Z,100627.66
2022-12-12T12:56:26.332Z,100630.22
2022-12-12T13:00:30.650Z,100619.88
2022-12-12T13:04:41.488Z,100624.81
2022-12-12T13:09:06.906Z,100625.56
2022-12-12T13:13:29.374Z,100633.00
2022-12-12T13:17:45.967Z,100638.34
2022-12-12T13:22:02.387Z,100632.03
2022-12-12T13:26:15.554Z,100630.59
2022-12-12T13:30:29.713Z,100637.88
2022-12-12T13:34:38.320Z,100640.00
2022-12-12T13:38:40.670Z,100649.69
2022-12-12T13:43:07.212Z,100655.16
2022-12-12T13:47:30.282Z,100645.69
2022-12-12T13:51:37.131Z,100666.31
2022-12-12T13:55:38.601Z,100656.69
2022-12-12T13:59:58.022Z,100667.75
2022-12-12T14:04:00.584Z,100660.25
2022-12-12T14:08:07.082Z,100665.13
2022-12-12T14:12:17.902Z,100667.94
2022-12-12T14:16:29.877Z,100666.88
2022-12-12T14:20:33.116Z,100670.72
2022-12-12T14:24:34.768Z,100664.25
2022-12-12T14:28:36.427Z,100666.41
2022-12-12T14:33:03.060Z,100679.81
2022-12-12T14:37:45.800Z,100679.84
2022-12-12T14:41:50.526Z,100677.38
2022-12-12T14:45:54.998Z,100679.50
2022-12-12T14:50:10.917Z,100678.44
2022-12-12T14:54:19.755Z,100676.22
2022-12-12T14:58:26.299Z,100689.78
2022-12-12T15:02:38.739Z,100700.72
2022-12-12T15:06:45.489Z,100694.41
2022-12-12T15:10:58.603Z,100697.47
2022-12-12T15:15:01.287Z,100706.13
2022-12-12T15:19:03.456Z,100699.34
2022-12-12T15:23:07.326Z,100700.97
2022-12-12T15:27:18.881Z,100698.81
2022-12-12T15:31:20.716Z,100697.44
2022-12-12T15:35:23.212Z,100698.78
2022-12-12T15:39:24.849Z,100702.28
2022-12-12T15:43:28.938Z,100709.66
2022-12-12T15:47:30.629Z,100711.03
2022-12-12T15:51:32.389Z,100711.78
2022-12-12T15:55:35.046Z,100697.97
2022-12-12T15:59:36.575Z,100708.75
2022-12-12T16:03:38.139Z,100715.38
2022-12-12T16:07:40.729Z,100709.97
2022-12-12T16:11:42.306Z,100715.94
2022-12-12T16:15:43.829Z,100716.22
2022-12-12T16:19:54.000Z,100720.81
2022-12-12T16:24:09.788Z,100725.72
2022-12-12T16:28:23.268Z,100731.59
2022-12-12T16:32:26.671Z,100733.00
2022-12-12T16:36:28.112Z,100734.31
2022-12-12T16:40:29.585Z,100733.31
2022-12-12T16:44:31.203Z,100738.97
2022-12-12T16:48:35.328Z,100737.34
2022-12-12T16:52:36.893Z,100749.84
2022-12-12T16:56:38.396Z,100747.13
2022-12-12T17:00:40.060Z,100744.97
2022-12-12T17:04:41.533Z,100743.31
2022-12-12T17:08:42.987Z,100742.00
2022-12-12T17:12:44.906Z,100745.78
2022-12-12T17:16:46.459Z,100754.78
2022-12-12T17:20:48.190Z,100760.94
2022-12-12T17:24:52.039Z,100767.41
2022-12-12T17:28:53.485Z,100772.94
2022-12-12T17:37:14.326Z,100769.66
2022-12-12T17:41:18.452Z,100759.06
2022-12-12T17:45:20.150Z,100749.06
2022-12-12T17:49:21.835Z,100745.75
2022-12-12T17:53:23.247Z,100747.41
2022-12-12T17:57:25.574Z,100751.72
2022-12-12T18:01:29.478Z,100745.22
2022-12-12T18:05:31.946Z,100743.56
2022-12-12T18:09:33.544Z,100749.56
2022-12-12T18:13:36.049Z,100755.00
2022-12-12T18:17:37.691Z,100756.94
2022-12-12T18:26:09.937Z,100762.34
2022-12-12T18:30:12.187Z,100758.56
2022-12-12T18:34:14.457Z,100766.47
2022-12-12T18:38:16.771Z,100766.41
2022-12-12T18:42:18.336Z,100768.63
2022-12-12T18:46:22.275Z,100762.09
2022-12-12T18:50:23.862Z,100769.66
2022-12-12T18:54:25.379Z,100773.72
2022-12-12T18:58:26.862Z,100774.03
2022-12-12T19:02:28.385Z,100780.59
2022-12-12T19:06:35.366Z,100779.22
2022-12-12T19:10:38.345Z,100793.56
2022-12-12T19:15:08.200Z,100782.72
2022-12-12T19:19:05.006Z,100784.38
2022-12-12T19:23:06.472Z,100791.19
2022-12-12T19:27:08.047Z,100794.44
2022-12-12T19:31:15.812Z,100787.63
2022-12-12T19:35:17.525Z,100785.72
2022-12-12T19:39:18.970Z,100786.00
2022-12-12T19:43:20.462Z,100788.97
2022-12-12T19:47:22.085Z,100794.13
2022-12-12T19:51:25.613Z,100799.28
2022-12-12T19:55:27.056Z,100808.81
2022-12-12T19:59:28.572Z,100806.91
2022-12-12T20:03:30.025Z,100810.44
2022-12-12T20:07:31.513Z,100803.38
2022-12-12T20:11:36.741Z,100797.69
2022-12-12T20:15:52.060Z,100796.00
2022-12-12T20:19:53.568Z,100807.41
2022-12-12T20:24:04.277Z,100808.50
2022-12-12T20:28:05.762Z,100804.47
2022-12-12T20:32:14.883Z,100809.88
2022-12-12T20:36:21.704Z,100821.84
2022-12-12T20:40:29.747Z,100821.31
2022-12-12T20:44:31.207Z,100819.13
2022-12-12T20:48:32.710Z,100819.94
2022-12-12T20:52:35.694Z,100814.25
2022-12-12T20:56:45.940Z,100820.75
2022-12-12T21:00:51.403Z,100829.44
2022-12-12T21:04:54.169Z,100818.53
2022-12-12T21:08:56.103Z,100809.06
2022-12-12T21:12:57.731Z,100822.13
2022-12-12T21:17:07.800Z,100821.84
2022-12-12T21:21:16.981Z,100829.19
2022-12-12T21:25:18.776Z,100822.38
2022-12-12T21:29:20.358Z,100813.41
2022-12-12T21:33:22.196Z,100818.03
2022-12-12T21:37:23.600Z,100817.22
2022-12-12T21:41:28.752Z,100809.34
2022-12-12T21:45:30.336Z,100809.88
2022-12-12T21:49:33.876Z,100807.72
2022-12-12T21:53:35.724Z,100814.22
2022-12-12T21:57:37.187Z,100816.41
2022-12-12T22:01:42.266Z,100814.72
2022-12-12T22:05:51.095Z,100815.88
2022-12-12T22:09:57.703Z,100812.06
2022-12-12T22:14:11.652Z,100810.44
2022-12-12T22:18:13.158Z,100817.22
2022-12-12T22:22:15.196Z,100821.03
2022-12-12T22:26:17.958Z,100824.56
2022-12-12T22:30:27.596Z,100818.84
2022-12-12T22:34:29.058Z,100815.84
2022-12-12T22:38:34.739Z,100811.22
2022-12-12T22:42:39.265Z,100805.00
2022-12-12T22:46:44.072Z,100818.31
2022-12-12T22:50:46.008Z,100822.41
2022-12-12T22:54:47.524Z,100814.78
2022-12-12T22:58:49.010Z,100823.50
2022-12-12T23:02:50.458Z,100823.47
2022-12-12T23:06:51.927Z,100834.34
2022-12-12T23:10:53.353Z,100829.44
2022-12-12T23:14:54.834Z,100829.75
2022-12-12T23:18:58.322Z,100835.16
2022-12-12T23:22:59.732Z,100827.00
2022-12-12T23:27:01.463Z,100830.00
2022-12-12T23:31:08.404Z,100834.03
2022-12-12T23:35:09.998Z,100828.91
2022-12-12T23:39:12.501Z,100826.72
2022-12-12T23:43:13.944Z,100820.47
2022-12-12T23:47:15.366Z,100820.75
2022-12-12T23:51:16.861Z,100809.84
2022-12-12T23:55:18.284Z,100815.03
2022-12-12T23:59:21.286Z,100811.50
